createdAt,value
2022-10-25T00:00:30.150Z,91.98
2022-10-25T00:02:57.264Z,92.18
2022-10-25T00:05:24.440Z,92.32
2022-10-25T00:07:51.492Z,92.23
2022-10-25T00:10:21.109Z,92.45
2022-10-25T00:12:51.939Z,92.69
2022-10-25T00:15:19.076Z,92.82
2022-10-25T00:17:46.407Z,92.88
2022-10-25T00:20:14.300Z,92.89
2022-10-25T00:22:41.352Z,92.95
2022-10-25T00:25:09.483Z,93.18
2022-10-25T00:27:38.314Z,92.99
2022-10-25T00:30:07.304Z,93.10
2022-10-25T00:32:35.077Z,93.28
2022-10-25T00:35:03.677Z,93.35
2022-10-25T00:37:31.093Z,93.71
2022-10-25T00:39:58.578Z,93.93
2022-10-25T00:42:27.157Z,93.94
2022-10-25T00:45:02.519Z,94.05
2022-10-25T00:47:41.030Z,94.61
2022-10-25T00:50:21.577Z,94.57
2022-10-25T00:52:51.523Z,94.77
2022-10-25T00:55:21.714Z,94.66
2022-10-25T00:58:11.182Z,94.55
2022-10-25T01:00:38.359Z,94.44
2022-10-25T01:03:06.837Z,94.43
2022-10-25T01:05:35.188Z,94.33
2022-10-25T01:08:02.581Z,94.35
2022-10-25T01:10:30.101Z,94.65
2022-10-25T01:12:57.376Z,95.00
2022-10-25T01:15:32.816Z,95.22
2022-10-25T01:18:10.711Z,95.31
2022-10-25T01:21:15.760Z,95.51
2022-10-25T01:24:14.481Z,95.52
2022-10-25T01:26:56.634Z,95.44
2022-10-25T01:29:43.027Z,95.48
2022-10-25T01:32:58.351Z,95.35
2022-10-25T01:35:25.449Z,95.34
2022-10-25T01:38:08.889Z,95.13
2022-10-25T01:40:57.315Z,94.88
2022-10-25T01:43:46.340Z,94.96
2022-10-25T01:46:24.715Z,95.20
2022-10-25T01:49:01.080Z,95.45
2022-10-25T01:51:29.579Z,95.51
2022-10-25T01:53:57.019Z,96.13
2022-10-25T01:56:31.684Z,96.46
2022-10-25T01:59:26.509Z,96.88
2022-10-25T02:02:30.408Z,96.89
2022-10-25T02:05:06.746Z,97.05
2022-10-25T02:07:40.446Z,97.19
2022-10-25T02:10:16.933Z,97.18
2022-10-25T02:13:26.983Z,97.17
2022-10-25T02:16:18.197Z,97.13
2022-10-25T02:18:49.354Z,97.05
2022-10-25T02:21:18.556Z,96.98
2022-10-25T02:23:48.375Z,97.12
2022-10-25T02:26:16.349Z,97.19
2022-10-25T02:28:43.839Z,96.99
2022-10-25T02:31:16.219Z,96.98
2022-10-25T02:33:47.598Z,96.96
2022-10-25T02:36:17.634Z,97.15
2022-10-25T02:38:44.723Z,97.22
2022-10-25T02:41:12.615Z,97.49
2022-10-25T02:43:39.748Z,97.65
2022-10-25T02:46:12.841Z,97.59
2022-10-25T02:48:40.060Z,97.47
2022-10-25T02:51:08.417Z,97.51
2022-10-25T02:53:36.466Z,97.56
2022-10-25T02:56:08.921Z,97.82
2022-10-25T02:58:38.443Z,98.21
2022-10-25T03:01:06.684Z,98.46
2022-10-25T03:03:35.389Z,98.59
2022-10-25T03:06:04.359Z,98.72
2022-10-25T03:08:32.980Z,98.96
2022-10-25T03:11:03.828Z,99.06
2022-10-25T03:13:31.662Z,98.93
2022-10-25T03:15:59.101Z,99.07
2022-10-25T03:18:26.251Z,99.16
2022-10-25T03:20:57.251Z,99.09
2022-10-25T03:23:24.880Z,99.05
2022-10-25T03:25:56.282Z,99.00
2022-10-25T03:28:24.283Z,98.78
2022-10-25T03:30:51.542Z,98.74
2022-10-25T03:33:18.825Z,98.69
2022-10-25T03:35:46.193Z,98.69
2022-10-25T03:38:13.343Z,98.49
2022-10-25T03:40:40.492Z,98.44
2022-10-25T03:43:07.702Z,98.40
2022-10-25T03:45:34.909Z,98.27
2022-10-25T03:48:02.098Z,98.47
2022-10-25T03:50:29.397Z,98.42
2022-10-25T03:52:56.790Z,98.39
2022-10-25T03:55:23.985Z,98.41
2022-10-25T03:57:51.051Z,98.59
2022-10-25T04:00:18.334Z,98.46
2022-10-25T04:02:45.557Z,98.44
2022-10-25T04:05:12.860Z,98.51
2022-10-25T04:07:43.449Z,98.58
2022-10-25T04:10:12.393Z,98.78
2022-10-25T04:12:40.986Z,99.07
2022-10-25T04:15:10.811Z,99.07
2022-10-25T04:17:39.134Z,99.10
2022-10-25T04:20:07.886Z,99.10
2022-10-25T04:25:06.941Z,98.82
2022-10-25T04:27:35.470Z,98.79
2022-10-25T04:30:03.410Z,98.67
2022-10-25T04:32:32.846Z,98.63
2022-10-25T04:35:02.204Z,98.53
2022-10-25T04:37:32.225Z,98.53
2022-10-25T04:40:02.745Z,98.75
2022-10-25T04:42:34.324Z,98.76
2022-10-25T04:45:02.598Z,98.86
2022-10-25T04:47:36.935Z,98.95
2022-10-25T04:50:06.909Z,98.99
2022-10-25T04:52:34.090Z,99.02
2022-10-25T04:55:01.230Z,98.99
2022-10-25T04:57:28.365Z,99.13
2022-10-25T04:59:58.062Z,99.16
2022-10-25T05:02:25.706Z,99.13
2022-10-25T05:04:52.984Z,99.17
2022-10-25T05:07:21.257Z,99.25
2022-10-25T05:09:48.471Z,99.30
2022-10-25T05:12:16.177Z,99.42
2022-10-25T05:14:44.434Z,99.60
2022-10-25T05:17:11.556Z,99.77
2022-10-25T05:19:39.158Z,99.83
2022-10-25T05:22:10.403Z,99.91
2022-10-25T05:24:37.673Z,99.89
2022-10-25T05:27:05.124Z,99.85
2022-10-25T05:29:33.183Z,99.95
2022-10-25T05:32:00.421Z,100.00
2022-10-25T05:34:27.907Z,100.00
2022-10-25T05:36:55.340Z,100.00
2022-10-25T05:39:22.505Z,100.00
2022-10-25T05:41:50.191Z,100.00
2022-10-25T05:44:17.837Z,100.00
2022-10-25T05:46:46.005Z,100.00
2022-10-25T05:49:13.442Z,100.00
2022-10-25T05:51:40.640Z,99.98
2022-10-25T05:54:14.851Z,100.00
2022-10-25T05:56:43.039Z,100.00
2022-10-25T05:59:12.250Z,100.00
2022-10-25T06:01:41.956Z,100.00
2022-10-25T06:04:10.181Z,100.00
2022-10-25T06:06:38.948Z,100.00
2022-10-25T06:09:07.526Z,100.00
2022-10-25T06:11:34.915Z,99.99
2022-10-25T06:14:02.651Z,99.99
2022-10-25T06:16:31.262Z,100.00
2022-10-25T06:18:58.700Z,99.94
2022-10-25T06:21:28.678Z,99.93
2022-10-25T06:23:56.589Z,99.84
2022-10-25T06:26:27.552Z,99.89
2022-10-25T06:29:00.731Z,99.89
2022-10-25T06:31:28.983Z,99.88
2022-10-25T06:33:56.217Z,99.97
2022-10-25T06:36:24.831Z,99.91
2022-10-25T06:38:52.797Z,99.92
2022-10-25T06:41:22.081Z,99.93
2022-10-25T06:43:49.943Z,99.76
2022-10-25T06:46:28.718Z,99.80
2022-10-25T06:48:58.103Z,99.88
2022-10-25T06:51:27.116Z,99.97
2022-10-25T06:53:59.938Z,99.99
2022-10-25T06:56:28.722Z,99.99
2022-10-25T06:58:56.186Z,100.00
2022-10-25T07:01:25.082Z,99.98
2022-10-25T07:03:57.008Z,100.00
2022-10-25T07:06:29.781Z,100.00
2022-10-25T07:08:59.651Z,100.00
2022-10-25T07:11:28.902Z,100.00
2022-10-25T07:13:58.878Z,100.00
2022-10-25T07:16:27.388Z,100.00
2022-10-25T07:18:59.088Z,99.98
2022-10-25T07:21:27.284Z,99.42
2022-10-25T07:23:55.194Z,99.00
2022-10-25T07:26:28.278Z,98.36
2022-10-25T07:28:57.016Z,98.11
2022-10-25T07:31:35.832Z,97.74
2022-10-25T07:34:05.078Z,97.53
2022-10-25T07:36:32.380Z,97.48
2022-10-25T07:38:59.549Z,97.16
2022-10-25T07:41:26.983Z,96.82
2022-10-25T07:43:54.516Z,97.01
2022-10-25T07:46:22.322Z,96.96
2022-10-25T07:48:49.781Z,96.98
2022-10-25T07:51:18.661Z,97.12
2022-10-25T07:53:47.490Z,97.27
2022-10-25T07:56:20.397Z,97.48
2022-10-25T07:58:50.751Z,97.52
2022-10-25T08:01:23.422Z,97.38
2022-10-25T08:03:54.398Z,97.16
2022-10-25T08:06:24.247Z,96.92
2022-10-25T08:08:55.429Z,96.82
2022-10-25T08:11:25.673Z,96.30
2022-10-25T08:13:53.000Z,94.53
2022-10-25T08:16:20.263Z,92.78
2022-10-25T08:18:47.718Z,91.50
2022-10-25T08:21:15.072Z,91.34
2022-10-25T08:23:42.373Z,90.94
2022-10-25T08:26:09.678Z,89.70
2022-10-25T08:28:37.144Z,89.53
2022-10-25T08:31:04.827Z,89.80
2022-10-25T08:33:36.143Z,88.97
2022-10-25T08:36:04.008Z,88.62
2022-10-25T08:38:31.366Z,88.37
2022-10-25T08:41:29.941Z,88.12
2022-10-25T08:44:04.869Z,87.22
2022-10-25T08:46:42.984Z,88.34
2022-10-25T08:49:23.051Z,88.39
2022-10-25T08:51:58.802Z,86.88
2022-10-25T08:54:29.235Z,85.87
2022-10-25T08:57:26.024Z,85.64
2022-10-25T08:59:58.661Z,85.67
2022-10-25T09:02:44.933Z,84.61
2022-10-25T09:05:50.196Z,84.52
2022-10-25T09:08:55.942Z,83.93
2022-10-25T09:11:54.518Z,83.56
2022-10-25T09:14:59.664Z,84.81
2022-10-25T09:17:46.384Z,83.66
2022-10-25T09:20:35.371Z,83.21
2022-10-25T09:23:07.427Z,81.97
2022-10-25T09:26:07.025Z,80.32
2022-10-25T09:28:56.169Z,79.67
2022-10-25T09:31:25.617Z,78.99
2022-10-25T09:34:04.277Z,79.89
2022-10-25T09:36:48.440Z,79.88
2022-10-25T09:39:28.191Z,79.43
2022-10-25T09:41:57.060Z,78.96
2022-10-25T09:44:39.895Z,79.05
2022-10-25T09:47:27.072Z,79.56
2022-10-25T09:50:06.410Z,80.11
2022-10-25T09:53:01.771Z,79.63
2022-10-25T09:55:48.567Z,79.88
2022-10-25T09:58:30.817Z,79.49
2022-10-25T10:01:02.066Z,79.29
2022-10-25T10:03:31.548Z,79.11
2022-10-25T10:06:02.690Z,78.46
2022-10-25T10:08:38.927Z,78.32
2022-10-25T10:11:08.701Z,78.61
2022-10-25T10:13:57.190Z,78.53
2022-10-25T10:16:27.570Z,78.52
2022-10-25T10:19:14.145Z,78.48
2022-10-25T10:21:46.743Z,78.35
2022-10-25T10:24:42.348Z,77.65
2022-10-25T10:27:29.428Z,77.32
2022-10-25T10:30:07.611Z,77.81
2022-10-25T10:32:51.743Z,78.32
2022-10-25T10:35:39.785Z,78.49
2022-10-25T10:41:44.318Z,77.66
2022-10-25T10:44:21.425Z,77.48
2022-10-25T10:47:24.965Z,78.09
2022-10-25T10:50:02.467Z,79.46
2022-10-25T10:52:37.532Z,80.03
2022-10-25T10:55:19.986Z,79.66
2022-10-25T10:58:09.777Z,79.71
2022-10-25T11:00:37.427Z,80.02
2022-10-25T11:03:45.060Z,80.36
2022-10-25T11:06:32.270Z,79.21
2022-10-25T11:09:24.588Z,78.78
2022-10-25T11:12:32.314Z,77.85
2022-10-25T11:15:02.764Z,76.67
2022-10-25T11:17:37.031Z,76.64
2022-10-25T11:20:27.430Z,75.50
2022-10-25T11:23:27.157Z,75.80
2022-10-25T11:26:12.433Z,76.24
2022-10-25T11:29:00.913Z,74.76
2022-10-25T11:32:05.817Z,73.59
2022-10-25T11:34:44.933Z,73.37
2022-10-25T11:37:23.342Z,74.00
2022-10-25T11:40:08.599Z,74.08
2022-10-25T11:42:59.670Z,73.94
2022-10-25T11:45:47.394Z,73.07
2022-10-25T11:48:41.953Z,72.33
2022-10-25T11:51:09.925Z,71.60
2022-10-25T11:54:07.288Z,71.80
2022-10-25T11:57:06.107Z,72.60
2022-10-25T12:00:04.291Z,72.45
2022-10-25T12:02:51.927Z,73.03
2022-10-25T12:05:38.675Z,73.93
2022-10-25T12:08:22.053Z,74.14
2022-10-25T12:10:57.123Z,73.12
2022-10-25T12:13:33.777Z,72.87
2022-10-25T12:16:02.932Z,73.52
2022-10-25T12:18:35.877Z,72.58
2022-10-25T12:21:04.467Z,72.61
2022-10-25T12:23:40.468Z,71.70
2022-10-25T12:26:16.272Z,71.79
2022-10-25T12:28:49.162Z,71.36
2022-10-25T12:31:22.996Z,70.04
2022-10-25T12:34:23.219Z,69.85
2022-10-25T12:36:56.196Z,70.34
2022-10-25T12:39:37.265Z,70.56
2022-10-25T12:42:08.643Z,70.62
2022-10-25T12:44:51.434Z,71.14
2022-10-25T12:47:35.284Z,70.73
2022-10-25T12:50:21.571Z,69.98
2022-10-25T12:53:13.200Z,70.89
2022-10-25T12:55:48.626Z,70.39
2022-10-25T12:58:24.898Z,70.05
2022-10-25T13:01:10.934Z,70.30
2022-10-25T13:04:00.851Z,70.71
2022-10-25T13:06:39.392Z,70.78
2022-10-25T13:09:21.045Z,70.32
2022-10-25T13:11:58.636Z,70.76
2022-10-25T13:14:35.121Z,70.33
2022-10-25T13:17:17.717Z,69.91
2022-10-25T13:19:54.649Z,70.37
2022-10-25T13:22:47.033Z,70.71
2022-10-25T13:25:14.527Z,70.65
2022-10-25T13:28:11.256Z,71.19
2022-10-25T13:30:38.582Z,71.02
2022-10-25T13:33:24.985Z,71.38
2022-10-25T13:35:53.173Z,71.90
2022-10-25T13:38:26.973Z,72.02
2022-10-25T13:41:19.001Z,72.07
2022-10-25T13:44:06.418Z,71.81
2022-10-25T13:46:42.580Z,72.06
2022-10-25T13:49:31.068Z,71.72
2022-10-25T13:52:20.200Z,72.23
2022-10-25T13:54:50.628Z,71.91
2022-10-25T13:57:53.124Z,72.24
2022-10-25T14:00:53.681Z,72.61
2022-10-25T14:03:36.558Z,72.50
2022-10-25T14:06:11.026Z,72.19
2022-10-25T14:09:10.387Z,72.06
2022-10-25T14:12:06.473Z,72.50
2022-10-25T14:15:03.972Z,72.98
2022-10-25T14:17:45.401Z,73.16
2022-10-25T14:20:45.369Z,73.67
2022-10-25T14:23:30.235Z,73.37
2022-10-25T14:25:59.944Z,73.54
2022-10-25T14:28:32.387Z,73.21
2022-10-25T14:31:01.097Z,73.36
2022-10-25T14:33:36.562Z,73.56
2022-10-25T14:36:06.934Z,73.82
2022-10-25T14:38:58.923Z,73.90
2022-10-25T14:41:31.754Z,74.28
2022-10-25T14:43:59.750Z,75.01
2022-10-25T14:46:28.754Z,75.20
2022-10-25T14:48:59.270Z,76.86
2022-10-25T14:51:38.287Z,77.77
2022-10-25T14:54:29.125Z,78.46
2022-10-25T14:57:07.854Z,79.80
2022-10-25T14:59:46.685Z,80.25
2022-10-25T15:02:32.862Z,80.20
2022-10-25T15:05:10.134Z,80.81
2022-10-25T15:07:47.413Z,81.01
2022-10-25T15:10:31.053Z,81.27
2022-10-25T15:13:30.771Z,81.62
2022-10-25T15:16:22.600Z,81.78
2022-10-25T15:19:08.729Z,82.00
2022-10-25T15:22:10.974Z,82.19
2022-10-25T15:24:46.114Z,82.33
2022-10-25T15:27:49.214Z,82.54
2022-10-25T15:30:50.662Z,82.59
2022-10-25T15:33:20.570Z,82.57
2022-10-25T15:36:01.843Z,82.57
2022-10-25T15:38:54.349Z,82.76
2022-10-25T15:41:20.533Z,82.93
2022-10-25T15:43:50.354Z,83.05
2022-10-25T15:46:24.066Z,83.15
2022-10-25T15:48:51.482Z,83.25
2022-10-25T15:51:24.195Z,83.34
2022-10-25T15:53:53.573Z,83.72
2022-10-25T15:56:24.201Z,84.05
2022-10-25T15:58:51.872Z,84.40
2022-10-25T16:01:19.461Z,84.86
2022-10-25T16:03:47.298Z,85.00
2022-10-25T16:06:15.154Z,85.35
2022-10-25T16:08:46.435Z,85.64
2022-10-25T16:11:17.772Z,86.13
2022-10-25T16:13:46.481Z,86.53
2022-10-25T16:16:41.494Z,86.72
2022-10-25T16:19:17.037Z,87.08
2022-10-25T16:21:45.264Z,87.47
2022-10-25T16:24:14.393Z,87.63
2022-10-25T16:26:47.689Z,87.99
2022-10-25T16:29:25.674Z,88.30
2022-10-25T16:31:54.306Z,88.67
2022-10-25T16:34:22.148Z,88.94
2022-10-25T16:36:51.498Z,89.32
2022-10-25T16:39:19.565Z,89.43
2022-10-25T16:41:48.874Z,89.53
2022-10-25T16:44:19.435Z,89.51
2022-10-25T16:46:48.511Z,89.76
2022-10-25T16:49:16.871Z,89.90
2022-10-25T16:51:45.495Z,90.00
2022-10-25T16:54:15.211Z,90.16
2022-10-25T16:56:43.441Z,90.39
2022-10-25T16:59:11.233Z,90.43
2022-10-25T17:01:40.233Z,90.60
2022-10-25T17:04:11.368Z,90.94
2022-10-25T17:06:42.684Z,91.18
2022-10-25T17:09:11.592Z,91.27
2022-10-25T17:11:39.243Z,91.37
2022-10-25T17:14:10.373Z,91.52
2022-10-25T17:16:44.903Z,91.61
2022-10-25T17:19:13.013Z,91.74
2022-10-25T17:21:41.842Z,91.96
2022-10-25T17:24:10.354Z,92.04
2022-10-25T17:26:38.324Z,92.06
2022-10-25T17:29:06.518Z,92.17
2022-10-25T17:31:33.953Z,92.20
2022-10-25T17:34:02.646Z,92.13
2022-10-25T17:36:32.276Z,92.08
2022-10-25T17:39:05.383Z,91.96
2022-10-25T17:41:32.985Z,91.97
2022-10-25T17:44:01.259Z,92.02
2022-10-25T17:46:31.175Z,91.96
2022-10-25T17:49:13.342Z,91.86
2022-10-25T17:51:46.509Z,91.77
2022-10-25T17:54:14.253Z,91.59
2022-10-25T17:56:41.584Z,91.45
2022-10-25T17:59:09.991Z,91.08
2022-10-25T18:01:38.513Z,91.07
2022-10-25T18:04:07.571Z,91.08
2022-10-25T18:06:35.634Z,90.83
2022-10-25T18:09:05.786Z,90.76
2022-10-25T18:11:33.288Z,90.72
2022-10-25T18:14:04.035Z,90.58
2022-10-25T18:16:33.333Z,90.55
2022-10-25T18:19:03.454Z,90.63
2022-10-25T18:21:32.989Z,90.57
2022-10-25T18:24:02.697Z,90.79
2022-10-25T18:26:30.721Z,90.73
2022-10-25T18:28:59.488Z,90.84
2022-10-25T18:31:27.562Z,91.02
2022-10-25T18:34:05.169Z,91.09
2022-10-25T18:36:33.147Z,91.01
2022-10-25T18:39:01.321Z,91.31
2022-10-25T18:41:32.017Z,91.24
2022-10-25T18:44:00.333Z,91.42
2022-10-25T18:46:33.551Z,91.58
2022-10-25T18:49:01.899Z,91.64
2022-10-25T18:51:30.335Z,91.81
2022-10-25T18:54:02.970Z,91.79
2022-10-25T18:56:32.274Z,91.93
2022-10-25T18:59:00.530Z,91.99
2022-10-25T19:01:33.212Z,92.13
2022-10-25T19:04:02.807Z,92.15
2022-10-25T19:06:31.867Z,92.24
2022-10-25T19:08:59.960Z,92.29
2022-10-25T19:11:27.738Z,92.37
2022-10-25T19:13:57.259Z,92.41
2022-10-25T19:16:26.233Z,92.35
2022-10-25T19:18:55.344Z,92.34
2022-10-25T19:21:24.128Z,92.27
2022-10-25T19:23:55.329Z,92.32
2022-10-25T19:26:25.194Z,92.31
2022-10-25T19:29:00.337Z,92.44
2022-10-25T19:31:29.924Z,92.83
2022-10-25T19:34:01.563Z,93.19
2022-10-25T19:36:31.148Z,93.46
2022-10-25T19:38:59.164Z,93.71
2022-10-25T19:41:28.954Z,93.89
2022-10-25T19:43:59.402Z,94.07
2022-10-25T19:46:27.889Z,94.28
2022-10-25T19:48:57.351Z,94.52
2022-10-25T19:51:25.863Z,94.74
2022-10-25T19:53:54.453Z,94.73
2022-10-25T19:56:28.691Z,95.19
2022-10-25T19:58:57.885Z,95.53
2022-10-25T20:01:29.111Z,95.77
2022-10-25T20:04:04.802Z,95.85
2022-10-25T20:06:36.976Z,96.06
2022-10-25T20:09:06.137Z,96.40
2022-10-25T20:11:37.256Z,96.48
2022-10-25T20:14:05.574Z,96.32
2022-10-25T20:16:33.920Z,96.12
2022-10-25T20:19:03.550Z,96.03
2022-10-25T20:21:37.423Z,96.00
2022-10-25T20:24:08.717Z,96.03
2022-10-25T20:26:38.819Z,96.02
2022-10-25T20:29:09.026Z,96.28
2022-10-25T20:31:37.214Z,96.41
2022-10-25T20:34:08.354Z,96.44
2022-10-25T20:36:36.596Z,96.19
2022-10-25T20:39:05.859Z,95.74
2022-10-25T20:41:36.598Z,95.73
2022-10-25T20:44:06.273Z,95.66
2022-10-25T20:46:35.120Z,95.52
2022-10-25T20:49:04.955Z,95.45
2022-10-25T20:51:32.712Z,95.35
2022-10-25T20:54:00.201Z,95.44
2022-10-25T20:56:27.532Z,95.58
2022-10-25T20:58:55.014Z,95.96
2022-10-25T21:01:22.531Z,95.97
2022-10-25T21:03:50.636Z,95.83
2022-10-25T21:06:18.094Z,95.96
2022-10-25T21:08:45.636Z,95.94
2022-10-25T21:11:14.134Z,95.97
2022-10-25T21:13:42.511Z,95.99
2022-10-25T21:16:12.303Z,96.26
2022-10-25T21:18:40.303Z,96.31
2022-10-25T21:21:10.107Z,96.47
2022-10-25T21:23:37.873Z,96.67
2022-10-25T21:26:08.541Z,96.83
2022-10-25T21:28:38.431Z,97.05
2022-10-25T21:31:09.655Z,96.97
2022-10-25T21:33:37.514Z,96.81
2022-10-25T21:36:10.589Z,96.90
2022-10-25T21:38:38.982Z,96.97
2022-10-25T21:41:21.046Z,97.18
2022-10-25T21:43:50.053Z,97.07
2022-10-25T21:46:18.702Z,96.90
2022-10-25T21:48:48.214Z,97.00
2022-10-25T21:51:15.524Z,96.98
2022-10-25T21:53:42.759Z,97.18
2022-10-25T21:56:14.836Z,97.24
2022-10-25T21:58:44.223Z,96.99
2022-10-25T22:01:13.627Z,97.02
2022-10-25T22:03:41.334Z,97.12
2022-10-25T22:06:10.519Z,96.98
2022-10-25T22:08:39.098Z,97.04
2022-10-25T22:11:09.594Z,97.38
2022-10-25T22:13:36.896Z,97.42
2022-10-25T22:16:07.872Z,97.60
2022-10-25T22:18:35.455Z,97.73
2022-10-25T22:21:08.531Z,97.67
2022-10-25T22:23:36.146Z,97.74
2022-10-25T22:26:11.077Z,97.84
2022-10-25T22:28:40.985Z,97.76
2022-10-25T22:31:18.238Z,97.34
2022-10-25T22:33:46.055Z,97.17
2022-10-25T22:36:18.565Z,97.07
2022-10-25T22:38:46.540Z,96.96
2022-10-25T22:41:24.713Z,97.11
2022-10-25T22:43:52.264Z,97.04
2022-10-25T22:46:23.687Z,96.96
2022-10-25T22:48:52.177Z,96.56
2022-10-25T22:51:20.345Z,96.51
2022-10-25T22:54:03.043Z,96.61
2022-10-25T22:56:31.408Z,96.58
2022-10-25T22:59:03.886Z,96.69
2022-10-25T23:01:33.306Z,96.61
2022-10-25T23:04:01.542Z,96.72
2022-10-25T23:06:33.555Z,96.84
2022-10-25T23:09:03.333Z,96.74
2022-10-25T23:11:33.254Z,96.97
2022-10-25T23:14:01.689Z,97.17
2022-10-25T23:16:29.999Z,97.09
2022-10-25T23:18:57.415Z,97.12
2022-10-25T23:21:27.099Z,97.36
2022-10-25T23:23:55.304Z,97.25
2022-10-25T23:26:25.233Z,97.32
2022-10-25T23:28:52.926Z,97.84
2022-10-25T23:31:20.180Z,98.15
2022-10-25T23:33:51.581Z,98.43
2022-10-25T23:36:20.838Z,98.30
2022-10-25T23:38:49.280Z,98.27
2022-10-25T23:41:16.949Z,98.26
2022-10-25T23:43:44.021Z,98.38
2022-10-25T23:46:11.950Z,98.51
2022-10-25T23:48:39.272Z,98.67
2022-10-25T23:51:09.524Z,98.55
2022-10-25T23:53:36.766Z,98.51
2022-10-25T23:56:05.767Z,98.63
2022-10-25T23:58:32.896Z,98.17
